Historyczne dane pomiarowe

Dodano dane terminowe – wersja testowa.

Dane z okresu 1951-2019

Wersja bazy: 1.32 [2019-02-07, lista zmian], aktualizacja planowana na 2019-03-07

Dane meteo z obszaru Polski uzyskane na podstawie danych udostępnionych przez Instytut Meteorologii i Gospodarki Wodnej – Państwowy Instytut Badawczy.

 

Wybierz Datę:    

       

TemperaturaWilgotnośćWiatrCiśnienieOpadyŚniegCzas trwania zjawisk
 Stacja t tx tn tng RH VA  wxwx mslp ppp RRR   cm mm wxwxwxwxwxwxwx
2002-01-14 -2.3 0.0 -4.1- 94.0- 8.0 2.0---- 0.0------------
2002-01-15 -4.9 0.5 -9.1- 93.3- 0.0 0.7---- 0.0------------
2002-01-16 -6.3 -1.6 -9.6- 89.0- 0.0 0.0---- 0.0------------
2002-01-17 -3.5 1.8 -8.6- 93.5- 8.0 0.0---- 0.0------------
2002-01-18 -3.1 2.8 -7.1- 91.3- 1.3 2.0---- 0.0------------
2002-01-19 0.8 4.5 -2.1- 96.8- 6.0 2.7---- 0.0------------
2002-01-20 4.3 7.5 2.4- 97.0- 6.3 2.3---- 2.6------------
2002-01-21 6.8 10.5 3.6- 93.5- 6.0 3.3---- 2.2------------
2002-01-22 7.4 10.5 5.4- 78.0- 4.3 2.3---- 0.0------------
2002-01-23 5.5 9.0 3.4- 73.3- 2.7 2.7---- 0.0------------
2002-01-24 6.3 9.0 2.8- 64.5- 7.3 3.3---- 2.0------------
2002-01-25 4.8 9.5 2.3- 59.8- 4.7 6.3---- 0.0------------
2002-01-26 5.9 11.0 1.2- 73.0- 5.0 4.7---- 0.0------------
2002-01-27 9.1 11.2 7.3- 64.8- 7.0 5.0---- 2.5------------
2002-01-28 9.3 14.5 5.2- 76.0- 7.3 4.0---- 3.0------------
2002-01-29 11.2 15.0 8.2- 47.5- 1.7 6.0---- 0.0------------
2002-01-30 10.2 14.6 6.2- 65.5- 4.3 2.3---- 0.0------------
2002-01-31 10.8 15.5 7.3- 50.8- 4.0 3.0---- 0.0------------
2002-02-01 6.7 12.5 1.8- 72.0- 2.0 2.7---- 0.0------------
2002-02-02 10.1 15.0 6.8- 68.5- 1.0 3.0---- 0.0------------
2002-02-03 11.1 16.0 8.2- 48.5- 0.0 4.0---- 0.0------------
2002-02-04 7.4 13.0 4.8- 69.5- 0.0 1.3---- 0.0------------
2002-02-05 9.0 14.5 3.8- 55.8- 5.3 3.0---- 0.2------------
2002-02-06 8.5 14.0 6.2- 75.8- 7.7 0.7---- 0.3------------
2002-02-07 6.2 8.6 4.8- 83.5- 8.0 0.0---- 0.0------------
2002-02-08 6.5 9.0 3.8- 73.0- 6.7 4.3---- 5.1------------
2002-02-09 8.6 12.0 5.0- 78.8- 6.0 3.0---- 0.6------------
2002-02-10 6.9 12.0 4.3- 78.5- 5.7 3.3---- 0.4------------
2002-02-11 7.7 11.0 4.8- 75.5- 8.0 3.3---- 1.9------------
2002-02-12 11.2 15.0 8.7- 78.0- 6.0 5.0---- 3.3------------
187.0 ms

 

Źródłem pochodzenia danych jest Instytut Meteorologii i Gospodarki Wodnej – Państwowy Instytut Badawczy. Dane Instytutu Meteorologii i Gospodarki Wodnej – Państwowego Instytutu Badawczego zostały przetworzone.

Dane źródłowe można odnaleźć na stronie https://dane.imgw.pl